Time;durP1;ratioP1;P1;durP2;ratioP2;P2;SDS_P1;SDS_P2;PMS_P1;PMS_P2;Temp;Humidity;BMP_temperature;BMP_pressure;BME280_temperature;BME280_humidity;BME280_pressure;Samples;Min_cycle;Max_cycle;Signal;HPM_P1;HPM_P2
2021/12/09 00:01:27;;;;;;;39.92;25.42;;;3.40;99.90;;;;;;6124261;23;20041;-74
2021/12/09 00:03:59;;;;;;;37.65;25.35;;;3.30;99.90;;;;;;6123849;23;20309;-76
2021/12/09 00:06:30;;;;;;;38.72;23.70;;;3.30;99.90;;;;;;6124247;23;20014;-71
2021/12/09 00:09:14;;;;;;;152.15;76.15;;;3.40;99.90;;;;;;6124072;23;20406;-70
2021/12/09 00:11:44;;;;;;;203.55;105.55;;;3.60;99.90;;;;;;6124153;23;20041;-70
2021/12/09 00:14:19;;;;;;;60.75;37.47;;;3.50;99.90;;;;;;6124161;23;20018;-70
2021/12/09 00:16:47;;;;;;;35.75;24.73;;;3.30;99.90;;;;;;6124276;23;20010;-79
2021/12/09 00:19:15;;;;;;;36.55;21.88;;;3.30;99.90;;;;;;6124657;23;20044;-76
2021/12/09 00:21:43;;;;;;;31.25;21.08;;;3.10;99.90;;;;;;6123780;23;20048;-70
2021/12/09 00:24:11;;;;;;;28.85;19.35;;;3.20;99.90;;;;;;6124369;23;20018;-73
2021/12/09 00:26:39;;;;;;;31.30;21.13;;;3.20;99.90;;;;;;6100512;23;20014;-77
2021/12/09 00:29:07;;;;;;;29.52;20.42;;;3.10;99.90;;;;;;6100828;23;20375;-71
2021/12/09 00:31:35;;;;;;;33.08;21.25;;;3.20;99.90;;;;;;6125898;23;20034;-71
2021/12/09 00:34:03;;;;;;;37.33;21.50;;;3.20;99.90;;;;;;6126124;23;20018;-66
2021/12/09 00:36:39;;;;;;;31.17;20.48;;;3.00;99.90;;;;;;6125947;23;20109;-66
2021/12/09 00:39:12;;;;;;;34.10;20.90;;;3.20;99.90;;;;;;6124910;23;20020;-71
2021/12/09 00:41:39;;;;;;;;;;;3.40;99.90;;;;;;6125707;23;20018;-74
2021/12/09 00:44:09;;;;;;;29.23;19.05;;;3.10;99.90;;;;;;6098804;23;19936;-75
2021/12/09 00:46:38;;;;;;;31.90;19.48;;;3.10;99.90;;;;;;6125773;23;20064;-68
2021/12/09 00:49:06;;;;;;;35.20;20.80;;;3.30;99.90;;;;;;6125910;23;20038;-69
2021/12/09 00:51:34;;;;;;;35.75;21.35;;;3.30;99.90;;;;;;6100294;23;20022;-69
2021/12/09 00:54:02;;;;;;;31.02;20.60;;;3.10;99.90;;;;;;6126047;23;20085;-72
2021/12/09 00:56:32;;;;;;;32.88;20.77;;;3.00;99.90;;;;;;6125794;23;20037;-69
2021/12/09 00:59:00;;;;;;;30.27;20.92;;;3.10;99.90;;;;;;6125831;23;20021;-67
2021/12/09 01:01:27;;;;;;;35.03;19.98;;;3.20;99.90;;;;;;6125686;23;20022;-67
2021/12/09 01:03:55;;;;;;;30.23;20.08;;;3.20;99.90;;;;;;6125468;23;20335;-68
2021/12/09 01:06:22;;;;;;;33.63;20.92;;;3.20;99.90;;;;;;6126025;23;20052;-72
2021/12/09 01:08:50;;;;;;;32.38;20.08;;;3.10;99.90;;;;;;6125310;23;20036;-69
2021/12/09 01:11:17;;;;;;;40.42;22.33;;;3.30;99.90;;;;;;6125869;23;20335;-68
2021/12/09 01:13:45;;;;;;;37.78;22.02;;;3.20;99.90;;;;;;6125463;23;20398;-77
2021/12/09 01:16:12;;;;;;;39.63;21.98;;;3.10;99.90;;;;;;6125471;23;20105;-76
2021/12/09 01:18:41;;;;;;;33.45;20.95;;;3.10;99.90;;;;;;6125471;23;20094;-70
2021/12/09 01:21:10;;;;;;;38.72;23.02;;;3.30;99.90;;;;;;6125860;23;20014;-70
2021/12/09 01:23:38;;;;;;;38.95;23.20;;;3.20;99.90;;;;;;6125041;23;20084;-68
2021/12/09 01:26:07;;;;;;;34.10;23.17;;;3.20;99.90;;;;;;6125432;23;20018;-77
2021/12/09 01:28:51;;;;;;;45.25;25.45;;;3.10;99.90;;;;;;6125305;23;20018;-68
2021/12/09 01:31:26;;;;;;;46.10;27.20;;;3.10;99.90;;;;;;6125657;23;20041;-68
2021/12/09 01:34:00;;;;;;;48.83;29.75;;;2.90;99.90;;;;;;6125401;23;20014;-69
2021/12/09 01:36:30;;;;;;;55.63;28.08;;;3.00;99.90;;;;;;6125326;23;20515;-69
2021/12/09 01:38:58;;;;;;;49.05;26.58;;;2.90;99.90;;;;;;6125631;23;20014;-67
2021/12/09 01:41:26;;;;;;;44.70;26.75;;;2.90;99.90;;;;;;6125400;23;20162;-69
2021/12/09 01:43:54;;;;;;;42.90;27.35;;;2.90;99.90;;;;;;6125483;23;20021;-69
2021/12/09 01:46:22;;;;;;;46.33;29.15;;;3.10;99.90;;;;;;6125051;23;20022;-70
2021/12/09 01:48:51;;;;;;;45.35;27.45;;;3.00;99.90;;;;;;6125277;23;20085;-69
2021/12/09 01:51:19;;;;;;;39.70;26.08;;;3.00;99.90;;;;;;6125619;23;20037;-72
2021/12/09 01:53:48;;;;;;;43.20;25.30;;;3.00;99.90;;;;;;6125224;23;20014;-79
2021/12/09 01:56:21;;;;;;;46.75;27.02;;;2.80;99.90;;;;;;6125377;23;20339;-73
2021/12/09 01:59:02;;;;;;;43.35;26.90;;;2.80;99.90;;;;;;6125362;23;20010;-68
2021/12/09 02:01:30;;;;;;;39.65;24.35;;;2.70;99.90;;;;;;6124963;23;20026;-69
2021/12/09 02:04:00;;;;;;;42.90;24.48;;;2.70;99.90;;;;;;6125223;23;20010;-69
2021/12/09 02:06:29;;;;;;;42.72;25.02;;;2.70;99.90;;;;;;6125441;23;20041;-69
2021/12/09 02:08:57;;;;;;;41.13;24.17;;;2.70;99.90;;;;;;6125027;23;20336;-70
2021/12/09 02:11:24;;;;;;;41.28;24.38;;;2.60;99.90;;;;;;6099725;23;20100;-69
2021/12/09 02:13:56;;;;;;;41.20;24.08;;;2.70;99.90;;;;;;6124997;23;20381;-69
2021/12/09 02:16:24;;;;;;;41.08;24.73;;;2.80;99.90;;;;;;6124981;23;20034;-72
2021/12/09 02:18:52;;;;;;;39.83;24.33;;;2.70;99.90;;;;;;6125021;23;20017;-67
2021/12/09 02:21:26;;;;;;;40.53;24.52;;;2.70;99.90;;;;;;6124880;23;20018;-73
2021/12/09 02:23:58;;;;;;;43.85;24.88;;;2.30;99.90;;;;;;6124860;23;20084;-73
2021/12/09 02:26:29;;;;;;;44.35;24.70;;;2.60;99.90;;;;;;6124884;23;20084;-76
2021/12/09 02:28:57;;;;;;;;;;;2.70;99.90;;;;;;6125751;23;20075;-75
2021/12/09 02:31:27;;;;;;;39.00;23.90;;;2.80;99.90;;;;;;6125349;23;19917;-85
2021/12/09 02:33:57;;;;;;;37.45;23.15;;;2.90;99.90;;;;;;6099621;23;20074;-79
2021/12/09 02:36:25;;;;;;;37.10;22.90;;;3.00;99.90;;;;;;6125114;23;20392;-70
2021/12/09 02:38:53;;;;;;;39.85;23.25;;;2.90;99.90;;;;;;6125076;23;20036;-68
2021/12/09 02:41:24;;;;;;;39.75;24.05;;;2.60;99.90;;;;;;6124569;23;20017;-69
2021/12/09 02:44:03;;;;;;;43.45;22.35;;;2.70;99.90;;;;;;6124864;23;20033;-67
2021/12/09 02:46:37;;;;;;;32.80;21.67;;;2.70;99.90;;;;;;6124492;23;20073;-69
2021/12/09 02:49:08;;;;;;;41.55;23.60;;;2.60;99.90;;;;;;6074927;23;20026;-70
2021/12/09 02:51:36;;;;;;;36.17;23.85;;;2.60;99.90;;;;;;6124348;23;20032;-74
2021/12/09 02:54:06;;;;;;;33.00;22.25;;;2.50;99.90;;;;;;6124908;23;20085;-73
2021/12/09 02:56:34;;;;;;;38.05;22.67;;;2.60;99.90;;;;;;6124702;23;20094;-81
2021/12/09 02:59:03;;;;;;;35.63;22.70;;;2.50;99.90;;;;;;6125030;23;20018;-75
2021/12/09 03:01:46;;;;;;;35.25;21.33;;;2.60;99.90;;;;;;6124300;23;20013;-68
2021/12/09 03:04:14;;;;;;;33.80;21.27;;;2.60;99.90;;;;;;6124508;23;20073;-78
2021/12/09 03:06:42;;;;;;;35.75;22.50;;;2.60;99.90;;;;;;6124201;23;20335;-72
2021/12/09 03:09:13;;;;;;;36.15;22.88;;;2.50;99.90;;;;;;6124814;23;20055;-67
2021/12/09 03:11:45;;;;;;;36.42;22.00;;;2.30;99.90;;;;;;6124139;23;20077;-68
2021/12/09 03:14:12;;;;;;;35.40;21.38;;;2.40;99.90;;;;;;6124623;23;20379;-75
2021/12/09 03:16:40;;;;;;;37.28;21.10;;;2.40;99.90;;;;;;6098324;23;20045;-69
2021/12/09 03:19:09;;;;;;;38.17;21.27;;;2.40;99.90;;;;;;6124621;23;20022;-77
2021/12/09 03:21:40;;;;;;;36.85;21.27;;;2.40;99.90;;;;;;6124208;23;20036;-81
2021/12/09 03:24:14;;;;;;;37.97;21.73;;;2.30;99.90;;;;;;6124732;23;20323;-69
2021/12/09 03:26:54;;;;;;;32.58;20.77;;;2.20;99.90;;;;;;6097929;23;20028;-80
2021/12/09 03:29:24;;;;;;;33.20;20.20;;;2.20;99.90;;;;;;6124565;23;20044;-69
2021/12/09 03:31:55;;;;;;;31.65;19.67;;;2.20;99.90;;;;;;6098046;23;20022;-77
2021/12/09 03:34:25;;;;;;;30.20;19.48;;;2.40;99.90;;;;;;6124816;23;20094;-72
2021/12/09 03:36:53;;;;;;;30.05;19.13;;;2.40;99.90;;;;;;6124518;23;20080;-74
2021/12/09 03:39:22;;;;;;;31.08;19.85;;;2.50;99.90;;;;;;6098716;23;20022;-68
2021/12/09 03:41:52;;;;;;;33.50;19.88;;;2.50;99.90;;;;;;6123909;23;20372;-67
2021/12/09 03:44:21;;;;;;;27.92;18.73;;;2.50;99.90;;;;;;6124866;23;20331;-73
2021/12/09 03:46:51;;;;;;;29.30;18.67;;;2.40;99.90;;;;;;6123962;23;20052;-70
2021/12/09 03:49:20;;;;;;;30.30;19.63;;;2.50;99.90;;;;;;6124615;23;20331;-71
2021/12/09 03:51:48;;;;;;;34.22;19.85;;;2.40;99.90;;;;;;6124312;23;20073;-78
2021/12/09 03:54:15;;;;;;;31.52;18.77;;;2.50;99.90;;;;;;6124753;23;20014;-69
2021/12/09 03:56:43;;;;;;;42.15;19.88;;;2.50;99.90;;;;;;6124038;23;20435;-71
2021/12/09 03:59:12;;;;;;;28.52;18.55;;;2.30;99.90;;;;;;6124271;23;20081;-77
2021/12/09 04:01:43;;;;;;;33.03;20.55;;;2.20;99.90;;;;;;6124453;23;20024;-75
2021/12/09 04:04:13;;;;;;;31.17;19.23;;;2.20;99.90;;;;;;6124977;23;20395;-75
2021/12/09 04:06:44;;;;;;;29.75;18.27;;;2.40;99.90;;;;;;6124336;23;20398;-68
2021/12/09 04:09:14;;;;;;;27.58;17.55;;;2.30;99.90;;;;;;6125018;23;20040;-70
2021/12/09 04:11:42;;;;;;;29.00;18.58;;;2.30;99.90;;;;;;6123877;23;20029;-73
2021/12/09 04:14:10;;;;;;;32.47;19.35;;;2.30;99.90;;;;;;6124030;23;20347;-65
2021/12/09 04:16:38;;;;;;;27.70;18.42;;;2.00;99.90;;;;;;6098369;23;20565;-68
2021/12/09 04:19:08;;;;;;;30.52;17.15;;;2.00;99.90;;;;;;6124676;23;20041;-79
2021/12/09 04:21:38;;;;;;;29.92;18.88;;;2.10;99.90;;;;;;6124065;23;20084;-67
2021/12/09 04:24:08;;;;;;;28.23;16.88;;;2.10;99.90;;;;;;6124442;23;20065;-69
2021/12/09 04:26:40;;;;;;;29.88;17.45;;;2.10;99.90;;;;;;6123823;23;20041;-68
2021/12/09 04:29:09;;;;;;;29.27;17.60;;;2.20;99.90;;;;;;6124575;23;20010;-68
2021/12/09 04:31:37;;;;;;;24.95;17.75;;;2.10;99.90;;;;;;6123988;23;20037;-69
2021/12/09 04:34:05;;;;;;;27.35;18.55;;;2.20;99.90;;;;;;6098413;23;20093;-77
2021/12/09 04:36:33;;;;;;;27.20;17.67;;;2.00;99.90;;;;;;6124308;23;20022;-67
2021/12/09 04:39:07;;;;;;;28.30;17.58;;;2.10;99.90;;;;;;6124803;23;20344;-71
2021/12/09 04:41:35;;;;;;;26.42;17.23;;;2.00;99.90;;;;;;6123706;23;20014;-78
2021/12/09 04:44:03;;;;;;;25.55;16.30;;;2.20;99.90;;;;;;6124259;23;20041;-68
2021/12/09 04:46:31;;;;;;;25.42;16.77;;;2.30;99.90;;;;;;6124040;23;20042;-68
2021/12/09 04:48:59;;;;;;;28.77;17.80;;;2.30;99.90;;;;;;6124172;23;20328;-69
2021/12/09 04:51:26;;;;;;;26.05;17.08;;;2.10;99.90;;;;;;6123985;23;20026;-68
2021/12/09 04:53:54;;;;;;;26.30;16.67;;;2.20;99.90;;;;;;6124262;23;20037;-68
2021/12/09 04:56:22;;;;;;;26.30;16.88;;;2.30;99.90;;;;;;6123318;23;20045;-64
2021/12/09 04:58:49;;;;;;;25.13;15.75;;;2.20;99.90;;;;;;6124238;23;20085;-69
2021/12/09 05:01:17;;;;;;;27.17;15.75;;;2.20;99.90;;;;;;6124397;23;20044;-77
2021/12/09 05:03:47;;;;;;;22.55;14.75;;;2.20;99.90;;;;;;6124479;23;20072;-77
2021/12/09 05:06:16;;;;;;;26.92;16.50;;;2.30;99.90;;;;;;6124531;23;20077;-83
2021/12/09 05:08:47;;;;;;;38.65;18.13;;;2.20;99.90;;;;;;6124338;23;20014;-68
2021/12/09 05:13:58;;;;;;;31.90;18.05;;;1.60;99.90;;;;;;6126424;23;20038;-77
2021/12/09 05:16:26;;;;;;;27.70;17.02;;;1.90;99.90;;;;;;6126041;23;20352;-83
2021/12/09 05:19:01;;;;;;;29.40;19.00;;;2.00;99.90;;;;;;6101170;23;20072;-70
2021/12/09 05:21:37;;;;;;;31.77;18.38;;;2.20;99.90;;;;;;6125829;23;20021;-72
2021/12/09 05:24:12;;;;;;;25.85;17.30;;;2.10;99.90;;;;;;6126117;23;20021;-83
2021/12/09 05:26:46;;;;;;;26.23;16.60;;;2.10;99.90;;;;;;6125371;23;20085;-76
2021/12/09 05:29:15;;;;;;;34.13;18.13;;;2.00;99.90;;;;;;6125982;23;20044;-69
2021/12/09 05:34:31;;;;;;;35.08;17.83;;;2.30;99.90;;;;;;6125769;23;20014;-82
2021/12/09 05:36:59;;;;;;;30.40;17.27;;;2.30;99.90;;;;;;6125463;23;20092;-74
2021/12/09 05:39:26;;;;;;;27.80;17.55;;;2.20;99.90;;;;;;6125578;23;20024;-72
2021/12/09 05:41:54;;;;;;;25.55;16.58;;;2.10;99.90;;;;;;6125277;23;20427;-75
2021/12/09 05:44:22;;;;;;;30.23;18.70;;;2.10;99.90;;;;;;6125565;23;20081;-76
2021/12/09 05:46:49;;;;;;;30.83;18.33;;;2.10;99.90;;;;;;6125340;23;20045;-68
2021/12/09 05:49:17;;;;;;;30.92;18.20;;;2.00;99.90;;;;;;6125874;23;20081;-69
2021/12/09 05:51:46;;;;;;;29.23;18.42;;;1.90;99.90;;;;;;6125387;23;20037;-74
2021/12/09 05:54:14;;;;;;;137.48;72.85;;;2.10;99.90;;;;;;6125050;23;20045;-67
2021/12/09 05:56:41;;;;;;;245.25;119.38;;;2.50;99.90;;;;;;6125266;23;20022;-68
2021/12/09 05:59:10;;;;;;;43.63;28.67;;;2.50;99.90;;;;;;6125708;23;20037;-76
2021/12/09 06:01:40;;;;;;;24.88;17.92;;;2.40;99.90;;;;;;6125229;23;20084;-76
2021/12/09 06:04:09;;;;;;;27.58;16.80;;;2.10;99.90;;;;;;6125020;23;20010;-69
2021/12/09 06:06:38;;;;;;;24.85;15.98;;;2.20;99.90;;;;;;6125160;23;20023;-70
2021/12/09 06:09:08;;;;;;;25.90;16.75;;;2.30;99.90;;;;;;6125084;23;20451;-70
2021/12/09 06:11:40;;;;;;;25.70;15.43;;;2.40;99.90;;;;;;6125258;23;20029;-74
2021/12/09 06:14:08;;;;;;;27.13;16.17;;;2.20;99.90;;;;;;6098840;23;20048;-67
2021/12/09 06:16:36;;;;;;;31.23;15.82;;;2.20;99.90;;;;;;6099219;23;20109;-78
2021/12/09 06:19:04;;;;;;;32.40;16.17;;;2.20;99.90;;;;;;6125239;23;20081;-78
2021/12/09 06:21:32;;;;;;;24.17;15.60;;;2.30;99.90;;;;;;6124733;23;20048;-78
2021/12/09 06:24:01;;;;;;;25.45;16.65;;;2.30;99.90;;;;;;6124681;23;20789;-74
2021/12/09 06:26:30;;;;;;;28.88;16.38;;;2.40;99.90;;;;;;6125021;23;20034;-76
2021/12/09 06:28:58;;;;;;;30.15;18.65;;;2.30;99.90;;;;;;6124871;23;20018;-72
2021/12/09 06:31:26;;;;;;;108.45;56.92;;;2.30;99.90;;;;;;5941415;23;20050;-72
2021/12/09 06:33:53;;;;;;;56.25;32.58;;;2.70;99.90;;;;;;6093352;23;20019;-71
2021/12/09 06:36:21;;;;;;;182.40;89.13;;;3.10;99.90;;;;;;6095548;23;20025;-70
2021/12/09 06:38:50;;;;;;;61.55;35.50;;;3.50;99.90;;;;;;6095071;23;20081;-75
2021/12/09 06:41:17;;;;;;;28.55;20.33;;;3.40;99.90;;;;;;6095500;23;20089;-71
2021/12/09 06:43:45;;;;;;;30.42;18.80;;;3.10;99.90;;;;;;6093996;23;20015;-70
2021/12/09 06:46:14;;;;;;;30.90;17.63;;;3.10;99.90;;;;;;6095511;23;20042;-66
2021/12/09 06:48:41;;;;;;;31.02;18.63;;;3.10;99.90;;;;;;6095490;23;20093;-69
2021/12/09 06:51:09;;;;;;;35.58;19.25;;;3.20;99.90;;;;;;6095434;23;20022;-72
2021/12/09 06:53:37;;;;;;;27.30;17.60;;;3.40;99.90;;;;;;6095011;23;20090;-69
2021/12/09 06:56:06;;;;;;;24.85;18.10;;;3.00;99.90;;;;;;6095104;23;20022;-71
2021/12/09 06:58:34;;;;;;;29.13;19.73;;;2.90;99.90;;;;;;6095294;23;20052;-75
2021/12/09 07:01:04;;;;;;;36.47;21.15;;;3.20;99.90;;;;;;6095591;23;20372;-72
2021/12/09 07:03:32;;;;;;;59.92;37.45;;;3.20;99.90;;;;;;6094881;23;20018;-77
2021/12/09 07:06:06;;;;;;;98.28;51.65;;;3.30;99.90;;;;;;6094754;23;20090;-77
2021/12/09 07:08:37;;;;;;;41.75;27.08;;;3.50;99.90;;;;;;6095294;23;20014;-72
2021/12/09 07:11:06;;;;;;;30.70;20.75;;;3.40;99.90;;;;;;6094090;23;20081;-70
2021/12/09 07:13:34;;;;;;;31.73;21.23;;;3.10;99.90;;;;;;6093695;23;20048;-77
2021/12/09 07:16:03;;;;;;;33.22;20.70;;;3.10;99.90;;;;;;6093188;23;20392;-71
2021/12/09 07:18:30;;;;;;;35.15;19.90;;;3.10;99.90;;;;;;6067738;23;20018;-71
2021/12/09 07:20:58;;;;;;;34.50;21.17;;;3.00;99.90;;;;;;6093324;23;20021;-78
2021/12/09 07:23:26;;;;;;;32.00;21.52;;;3.20;99.90;;;;;;6092977;23;20081;-68
2021/12/09 07:25:54;;;;;;;39.50;22.08;;;3.20;99.90;;;;;;6093259;23;20375;-73
2021/12/09 07:28:22;;;;;;;35.42;22.10;;;3.30;99.90;;;;;;6067487;23;20336;-73
2021/12/09 07:30:50;;;;;;;33.92;21.95;;;3.20;99.90;;;;;;6094512;23;20037;-71
2021/12/09 07:33:18;;;;;;;29.88;21.67;;;3.30;99.90;;;;;;6094117;23;20090;-77
2021/12/09 07:35:46;;;;;;;35.90;21.65;;;3.40;99.90;;;;;;6094003;23;20030;-72
2021/12/09 07:38:15;;;;;;;33.30;21.55;;;3.30;99.90;;;;;;6094852;23;20030;-78
2021/12/09 07:40:43;;;;;;;31.98;20.95;;;3.40;99.90;;;;;;6095184;23;20021;-72
2021/12/09 07:43:10;;;;;;;31.38;20.08;;;3.40;99.90;;;;;;6095072;23;20090;-73
2021/12/09 07:45:38;;;;;;;30.15;20.92;;;3.30;99.90;;;;;;6094884;23;20014;-70
2021/12/09 07:48:06;;;;;;;32.58;21.58;;;3.40;99.90;;;;;;6095056;23;20045;-70
2021/12/09 07:50:35;;;;;;;39.10;22.55;;;3.20;99.90;;;;;;6070074;23;20041;-72
2021/12/09 07:53:02;;;;;;;39.80;24.15;;;3.30;99.90;;;;;;6095036;23;20025;-69
2021/12/09 07:55:30;;;;;;;43.63;24.88;;;3.20;99.90;;;;;;6094884;23;20038;-72
2021/12/09 07:57:57;;;;;;;41.65;24.25;;;3.20;99.90;;;;;;6069738;23;20109;-70
2021/12/09 08:00:28;;;;;;;41.35;24.35;;;3.50;99.90;;;;;;6094840;23;20041;-68
2021/12/09 08:02:57;;;;;;;36.42;23.67;;;3.30;99.90;;;;;;6093870;23;20077;-69
2021/12/09 08:05:27;;;;;;;38.83;24.27;;;3.20;99.90;;;;;;6093387;23;20152;-70
2021/12/09 08:07:54;;;;;;;41.72;24.75;;;3.50;99.90;;;;;;6093589;23;20097;-70
2021/12/09 08:10:22;;;;;;;37.88;24.70;;;3.70;99.90;;;;;;6094013;23;20038;-72
2021/12/09 08:12:51;;;;;;;39.53;24.60;;;3.80;99.90;;;;;;6094576;23;20332;-70
2021/12/09 08:15:29;;;;;;;40.72;24.13;;;3.90;99.90;;;;;;6094979;23;20015;-71
2021/12/09 08:20:25;;;;;;;38.92;24.92;;;4.00;99.90;;;;;;6068667;23;20022;-70
2021/12/09 08:22:53;;;;;;;50.85;26.00;;;4.50;99.90;;;;;;6094883;23;20038;-75
2021/12/09 08:25:21;;;;;;;37.08;24.60;;;4.50;99.90;;;;;;6069545;23;20040;-75
2021/12/09 08:27:52;;;;;;;41.15;25.25;;;4.60;99.90;;;;;;6069357;23;20022;-70
2021/12/09 08:30:23;;;;;;;48.13;26.35;;;4.90;99.90;;;;;;6094786;23;20030;-70
2021/12/09 08:33:10;;;;;;;41.63;25.02;;;5.00;99.90;;;;;;6094744;23;20014;-73
2021/12/09 08:35:38;;;;;;;44.58;25.80;;;5.10;99.90;;;;;;6094675;23;20090;-68
2021/12/09 08:38:07;;;;;;;38.60;25.85;;;5.40;99.90;;;;;;6093676;23;20014;-69
2021/12/09 08:40:36;;;;;;;37.33;25.48;;;5.30;99.90;;;;;;6093726;23;20018;-76
2021/12/09 08:43:04;;;;;;;39.83;25.63;;;5.50;99.90;;;;;;6093596;23;20022;-70
2021/12/09 08:45:33;;;;;;;41.55;26.80;;;5.80;99.90;;;;;;6093964;23;20025;-73
2021/12/09 08:48:00;;;;;;;41.83;27.23;;;5.40;99.90;;;;;;6094794;23;20054;-69
2021/12/09 08:50:33;;;;;;;47.58;27.40;;;5.10;99.90;;;;;;6070298;23;20397;-69
2021/12/09 08:53:08;;;;;;;43.10;27.50;;;5.20;99.90;;;;;;6094105;23;20034;-70
2021/12/09 08:55:37;;;;;;;54.58;29.45;;;5.20;99.90;;;;;;6096082;23;20014;-67
2021/12/09 08:58:05;;;;;;;42.85;29.05;;;5.30;99.90;;;;;;6069700;23;20019;-72
2021/12/09 09:00:33;;;;;;;52.60;30.90;;;5.30;99.90;;;;;;6095290;23;20018;-75
2021/12/09 09:03:03;;;;;;;48.03;30.88;;;5.00;99.90;;;;;;6095615;23;20034;-69
2021/12/09 09:05:32;;;;;;;45.33;30.02;;;4.60;99.90;;;;;;6070963;23;20014;-73
2021/12/09 09:08:00;;;;;;;47.25;30.55;;;4.50;99.90;;;;;;6095135;23;20106;-70
2021/12/09 09:10:33;;;;;;;47.42;30.63;;;4.30;99.90;;;;;;6069986;23;20089;-67
2021/12/09 09:13:00;;;;;;;41.47;28.88;;;4.20;99.90;;;;;;6070948;23;20389;-70
2021/12/09 09:15:31;;;;;;;38.03;26.77;;;4.60;99.90;;;;;;6092048;23;20014;-69
2021/12/09 09:17:59;;;;;;;;;;;4.70;99.90;;;;;;6094521;23;20018;-70
2021/12/09 09:20:29;;;;;;;35.83;23.30;;;4.90;99.90;;;;;;6094450;23;19917;-72
2021/12/09 09:22:57;;;;;;;38.45;22.60;;;5.20;99.90;;;;;;6094925;23;20018;-71
2021/12/09 09:25:29;;;;;;;37.08;21.67;;;5.10;99.90;;;;;;6095216;23;20026;-69
2021/12/09 09:27:59;;;;;;;36.70;22.98;;;5.10;99.90;;;;;;6094062;23;20393;-70
2021/12/09 09:30:36;;;;;;;32.72;22.25;;;5.40;99.90;;;;;;6095278;23;20014;-74
2021/12/09 09:33:08;;;;;;;32.70;20.38;;;5.50;99.90;;;;;;6094750;23;20089;-70
2021/12/09 09:35:38;;;;;;;33.95;21.67;;;5.40;99.90;;;;;;6093228;23;20332;-75
2021/12/09 09:38:07;;;;;;;40.05;22.80;;;5.40;99.90;;;;;;6094360;23;20021;-70
2021/12/09 09:40:49;;;;;;;34.58;22.80;;;5.60;99.90;;;;;;6095672;23;20026;-69
2021/12/09 09:43:30;;;;;;;36.33;23.40;;;6.20;99.90;;;;;;6094687;23;20021;-69
2021/12/09 09:46:05;;;;;;;36.13;23.70;;;6.10;99.90;;;;;;6067958;23;20018;-74
2021/12/09 09:48:35;;;;;;;46.03;24.75;;;6.20;99.90;;;;;;6095560;23;20380;-76
2021/12/09 09:51:05;;;;;;;35.17;23.13;;;6.60;99.90;;;;;;6095585;23;20017;-79
2021/12/09 09:53:33;;;;;;;33.17;22.25;;;6.50;99.90;;;;;;6096038;23;20018;-72
2021/12/09 09:56:01;;;;;;;36.30;21.77;;;6.80;99.90;;;;;;6095293;23;20328;-71
2021/12/09 09:58:28;;;;;;;31.92;22.23;;;7.30;99.90;;;;;;6095891;23;20011;-70
2021/12/09 10:00:56;;;;;;;31.55;21.48;;;7.50;99.90;;;;;;6070049;23;20444;-67
2021/12/09 10:03:29;;;;;;;32.20;23.23;;;7.30;99.90;;;;;;6095273;23;20078;-72
2021/12/09 10:05:58;;;;;;;44.33;24.73;;;7.70;99.90;;;;;;6095629;23;20018;-71
2021/12/09 10:08:26;;;;;;;39.15;24.23;;;7.10;99.90;;;;;;6070685;23;20018;-70
2021/12/09 10:10:53;;;;;;;33.85;23.08;;;7.00;99.90;;;;;;6095432;23;20085;-67
2021/12/09 10:13:29;;;;;;;34.75;23.73;;;7.80;99.90;;;;;;6095662;23;20019;-76
2021/12/09 10:16:01;;;;;;;39.05;24.02;;;8.20;99.90;;;;;;6094879;23;20011;-71
2021/12/09 10:18:43;;;;;;;30.00;21.60;;;8.20;99.90;;;;;;6095214;23;20461;-70
2021/12/09 10:21:18;;;;;;;31.33;20.90;;;7.80;99.90;;;;;;6070121;23;20241;-81
2021/12/09 10:23:51;;;;;;;31.33;20.92;;;8.10;99.90;;;;;;6095683;23;20014;-71
2021/12/09 10:26:23;;;;;;;28.48;19.85;;;8.20;99.90;;;;;;6094672;23;20018;-67
2021/12/09 10:29:18;;;;;;;26.75;17.83;;;7.90;99.90;;;;;;6094813;23;20018;-70
2021/12/09 10:31:57;;;;;;;25.00;17.58;;;7.30;99.90;;;;;;6068712;23;20018;-73
2021/12/09 10:34:40;;;;;;;26.05;17.50;;;6.90;99.90;;;;;;6095173;23;20042;-68
2021/12/09 10:37:20;;;;;;;29.23;17.45;;;7.30;99.90;;;;;;6094817;23;20038;-69
2021/12/09 10:40:06;;;;;;;19.60;15.90;;;7.80;99.90;;;;;;6095965;23;20022;-81
2021/12/09 10:42:44;;;;;;;23.85;16.30;;;8.00;99.90;;;;;;6095723;23;20329;-68
2021/12/09 10:45:28;;;;;;;26.98;18.95;;;8.00;99.90;;;;;;6094943;23;20025;-70
2021/12/09 10:48:06;;;;;;;32.35;21.08;;;7.70;99.90;;;;;;6095127;23;20023;-70
2021/12/09 10:50:47;;;;;;;34.30;22.13;;;6.90;99.90;;;;;;6095079;23;20021;-70
2021/12/09 10:55:51;;;;;;;31.65;19.83;;;8.20;99.90;;;;;;6069635;23;20055;-70
2021/12/09 10:58:35;;;;;;;28.40;18.83;;;10.40;99.00;;;;;;6095051;23;20037;-73
2021/12/09 11:01:16;;;;;;;30.80;19.45;;;12.10;92.60;;;;;;6094470;23;20444;-71
2021/12/09 11:03:49;;;;;;;36.55;19.88;;;11.80;92.40;;;;;;6093886;23;20022;-81
2021/12/09 11:06:19;;;;;;;30.55;20.42;;;12.30;87.90;;;;;;6094394;23;20010;-77
2021/12/09 11:08:53;;;;;;;27.75;20.58;;;12.50;84.60;;;;;;6068720;23;20022;-69
2021/12/09 11:11:28;;;;;;;31.42;21.67;;;11.80;90.50;;;;;;6094730;23;20042;-70
2021/12/09 11:14:13;;;;;;;33.83;21.42;;;12.80;86.60;;;;;;6094222;23;20407;-69
2021/12/09 11:16:43;;;;;;;31.48;22.63;;;14.00;77.20;;;;;;6094271;23;20018;-75
2021/12/09 11:22:04;;;;;;;35.08;22.67;;;11.40;91.10;;;;;;6068386;23;20042;-71
2021/12/09 11:24:38;;;;;;;33.53;21.08;;;10.80;93.70;;;;;;6094786;23;20024;-73
2021/12/09 11:27:12;;;;;;;31.05;20.30;;;11.10;95.10;;;;;;6094030;23;20725;-72
2021/12/09 11:29:51;;;;;;;30.88;21.25;;;11.50;94.00;;;;;;6095142;23;20038;-71
2021/12/09 11:35:16;;;;;;;28.90;19.25;;;11.70;93.40;;;;;;6067670;23;20056;-75
2021/12/09 11:38:01;;;;;;;26.55;17.52;;;12.20;92.30;;;;;;6095101;23;20070;-68
2021/12/09 11:40:42;;;;;;;28.50;18.95;;;12.10;92.20;;;;;;6095471;23;20021;-72
2021/12/09 11:43:12;;;;;;;25.92;15.90;;;12.30;92.50;;;;;;6094917;23;20046;-71
2021/12/09 11:45:42;;;;;;;;;;;12.10;92.90;;;;;;6095952;23;20085;-70
2021/12/09 11:48:12;;;;;;;22.85;14.93;;;11.70;93.80;;;;;;6094757;23;20227;-76
2021/12/09 11:50:43;;;;;;;23.90;16.13;;;11.20;95.30;;;;;;6095460;23;20010;-86
2021/12/09 11:53:14;;;;;;;28.00;15.05;;;10.90;95.90;;;;;;6094945;23;20018;-70
2021/12/09 11:55:48;;;;;;;22.08;15.00;;;10.50;97.10;;;;;;6095888;23;20089;-76
2021/12/09 12:12:54;;;;;;;21.50;15.05;;;11.30;99.90;;;;;;6093748;23;20030;-74
2021/12/09 12:40:34;;;;;;;22.08;14.90;;;9.90;99.90;;;;;;6097394;23;20015;-76
2021/12/09 12:43:10;;;;;;;23.50;15.82;;;9.90;99.90;;;;;;6096810;23;20014;-74
2021/12/09 12:51:46;;;;;;;31.27;16.63;;;10.40;99.90;;;;;;6096007;23;20014;-77
2021/12/09 12:54:19;;;;;;;25.00;16.10;;;9.30;99.90;;;;;;6096575;23;20077;-73
2021/12/09 12:56:59;;;;;;;29.17;17.08;;;10.00;99.90;;;;;;6096510;23;20034;-70
2021/12/09 12:59:38;;;;;;;26.73;16.52;;;9.70;99.90;;;;;;6071429;23;20017;-71
2021/12/09 13:02:31;;;;;;;29.30;16.52;;;10.00;99.90;;;;;;6096214;23;20045;-73
2021/12/09 13:07:43;;;;;;;22.20;14.05;;;10.60;99.90;;;;;;6070621;23;20630;-79
2021/12/09 13:10:29;;;;;;;18.30;12.38;;;10.60;99.90;;;;;;6096444;23;20478;-75
2021/12/09 13:16:00;;;;;;;17.25;11.05;;;10.50;99.90;;;;;;6096789;23;20024;-77
2021/12/09 13:19:05;;;;;;;17.45;11.52;;;10.70;99.90;;;;;;6096260;23;20014;-78
2021/12/09 13:21:43;;;;;;;15.60;11.13;;;10.70;99.90;;;;;;6096358;23;20098;-81
2021/12/09 13:24:24;;;;;;;15.63;10.05;;;9.90;99.90;;;;;;6070626;23;20324;-79
2021/12/09 13:35:21;;;;;;;15.27;10.55;;;9.60;99.90;;;;;;6095904;23;20014;-70
2021/12/09 13:46:40;;;;;;;15.23;11.00;;;9.40;99.90;;;;;;6096166;23;20018;-70
2021/12/09 13:49:34;;;;;;;16.88;10.93;;;9.50;99.90;;;;;;6096016;23;20022;-74
2021/12/09 13:55:13;;;;;;;15.38;11.10;;;9.40;99.90;;;;;;6069294;23;20057;-74
2021/12/09 13:57:52;;;;;;;15.13;11.23;;;9.30;99.90;;;;;;6095096;23;20045;-75
2021/12/09 14:00:25;;;;;;;22.27;10.52;;;9.40;99.90;;;;;;6070070;23;20018;-70
2021/12/09 14:03:05;;;;;;;17.40;11.20;;;9.30;99.90;;;;;;6095226;23;20297;-71
2021/12/09 14:05:47;;;;;;;17.70;11.47;;;9.30;99.90;;;;;;6095715;23;20014;-70
2021/12/09 14:08:23;;;;;;;17.05;11.68;;;9.30;99.90;;;;;;6095266;23;20027;-70
2021/12/09 14:10:54;;;;;;;21.88;11.73;;;9.40;99.90;;;;;;6095724;23;20392;-73
2021/12/09 14:13:26;;;;;;;16.38;11.35;;;9.30;99.90;;;;;;6095446;23;20077;-74
2021/12/09 14:16:08;;;;;;;14.82;11.18;;;9.20;99.90;;;;;;6095846;23;20083;-67
2021/12/09 14:21:22;;;;;;;15.00;11.40;;;9.20;99.90;;;;;;6095866;23;20021;-68
2021/12/09 14:24:14;;;;;;;23.38;11.98;;;9.10;99.90;;;;;;6095535;23;20014;-72
2021/12/09 14:26:50;;;;;;;29.85;17.60;;;9.10;99.90;;;;;;6095362;23;20010;-68